Time;durP1;ratioP1;P1;durP2;ratioP2;P2;SDS_P1;SDS_P2;PMS_P1;PMS_P2;Temp;Humidity;BMP_temperature;BMP_pressure;BME280_temperature;BME280_humidity;BME280_pressure;Samples;Min_cycle;Max_cycle;Signal;HPM_P1;HPM_P2
2022/12/29 00:01:49;;;;;;;1.13;0.90;;;3.40;99.90;;;;;;8113762;29;20032;-82
2022/12/29 00:05:57;;;;;;;0.75;0.60;;;3.50;99.90;;;;;;8092382;29;20025;-81
2022/12/29 00:09:57;;;;;;;1.10;0.60;;;3.70;99.90;;;;;;8074116;29;20052;-81
2022/12/29 00:18:17;;;;;;;0.85;0.50;;;4.70;99.90;;;;;;8110363;29;20056;-82
2022/12/29 00:35:25;;;;;;;0.60;0.50;;;5.90;99.90;;;;;;8111682;29;20100;-81
2022/12/29 00:48:04;;;;;;;1.35;0.63;;;6.30;99.90;;;;;;8112408;29;20636;-82
2022/12/29 00:52:07;;;;;;;1.10;0.70;;;6.20;99.90;;;;;;8110066;29;20032;-82
2022/12/29 00:56:08;;;;;;;0.90;0.50;;;6.20;99.90;;;;;;8097716;29;20073;-82
2022/12/29 01:00:09;;;;;;;0.85;0.68;;;6.20;99.90;;;;;;8088307;29;20027;-82
2022/12/29 01:04:10;;;;;;;0.68;0.50;;;6.10;99.90;;;;;;8105936;29;20489;-82
2022/12/29 01:08:10;;;;;;;0.98;0.88;;;6.00;99.90;;;;;;8101381;29;20036;-82
2022/12/29 01:12:11;;;;;;;0.88;0.65;;;5.90;99.90;;;;;;8108230;29;20028;-82
2022/12/29 01:16:12;;;;;;;1.35;0.85;;;5.90;99.90;;;;;;8074550;29;20032;-81
2022/12/29 01:20:13;;;;;;;1.83;1.10;;;5.80;99.90;;;;;;8090398;29;20031;-81
2022/12/29 01:24:15;;;;;;;0.82;0.63;;;6.00;99.90;;;;;;8114027;29;20024;-80
2022/12/29 01:28:15;;;;;;;1.13;0.77;;;6.10;99.90;;;;;;8074770;29;20032;-82
2022/12/29 01:32:16;;;;;;;1.60;0.85;;;6.20;99.90;;;;;;8101505;29;20037;-81
2022/12/29 01:36:17;;;;;;;1.30;0.63;;;6.30;99.90;;;;;;8100927;29;20131;-81
2022/12/29 01:40:18;;;;;;;0.98;0.70;;;6.40;99.90;;;;;;8088567;29;20025;-82
2022/12/29 01:44:57;;;;;;;1.10;0.60;;;6.40;99.90;;;;;;8078292;29;20393;-82
2022/12/29 01:49:02;;;;;;;1.08;0.70;;;6.50;99.90;;;;;;8122187;29;20111;-82
2022/12/29 01:53:11;;;;;;;1.30;0.60;;;6.60;99.90;;;;;;8109801;29;20516;-81
2022/12/29 01:57:16;;;;;;;0.95;0.80;;;6.70;99.90;;;;;;8085643;29;20029;-82
2022/12/29 02:01:19;;;;;;;1.75;0.77;;;6.70;99.90;;;;;;8081199;29;20036;-80
2022/12/29 02:05:38;;;;;;;1.65;0.98;;;6.70;99.90;;;;;;8093567;29;20025;-82
2022/12/29 02:09:39;;;;;;;1.40;0.88;;;6.80;99.90;;;;;;8100331;29;20397;-81
2022/12/29 02:13:39;;;;;;;1.35;0.80;;;6.80;99.90;;;;;;8092589;29;20024;-81
2022/12/29 02:18:02;;;;;;;1.30;0.70;;;6.80;99.90;;;;;;8090586;29;20033;-82
2022/12/29 02:22:23;;;;;;;0.73;0.60;;;6.80;99.90;;;;;;8097330;29;20021;-81
2022/12/29 02:26:54;;;;;;;0.95;0.65;;;6.70;99.90;;;;;;8101408;29;20043;-81
2022/12/29 02:30:54;;;;;;;1.42;0.80;;;6.80;99.90;;;;;;8108797;29;20048;-81
2022/12/29 02:35:01;;;;;;;1.25;0.63;;;6.90;99.90;;;;;;8091456;29;20041;-81
2022/12/29 02:39:24;;;;;;;1.02;0.63;;;6.90;99.90;;;;;;8106876;29;20076;-81
2022/12/29 02:43:47;;;;;;;1.77;0.80;;;6.80;99.90;;;;;;8089678;29;20032;-80
2022/12/29 02:48:00;;;;;;;2.40;1.25;;;7.00;99.90;;;;;;8095645;29;20036;-81
2022/12/29 02:52:14;;;;;;;1.35;0.75;;;7.30;99.90;;;;;;8113204;29;20032;-81
2022/12/29 02:56:14;;;;;;;1.38;0.73;;;7.40;99.90;;;;;;8109572;29;20029;-81
2022/12/29 03:00:17;;;;;;;0.63;0.60;;;7.40;99.90;;;;;;8086440;29;20035;-81
2022/12/29 03:04:45;;;;;;;0.82;0.68;;;7.40;99.90;;;;;;8086987;29;20057;-80
2022/12/29 03:08:59;;;;;;;1.20;0.75;;;7.50;99.90;;;;;;8105720;29;20043;-81
2022/12/29 03:17:58;;;;;;;0.95;0.60;;;7.70;99.90;;;;;;8119153;29;20035;-80
2022/12/29 03:26:26;;;;;;;0.68;0.40;;;8.10;99.90;;;;;;8114093;29;20043;-80
2022/12/29 03:30:29;;;;;;;0.60;0.50;;;8.30;99.90;;;;;;8106444;29;20037;-82
2022/12/29 03:34:31;;;;;;;0.60;0.60;;;8.50;99.90;;;;;;8098496;29;20043;-82
2022/12/29 03:38:53;;;;;;;1.10;0.63;;;8.50;99.90;;;;;;8091316;29;20402;-82
2022/12/29 03:42:55;;;;;;;0.85;0.50;;;8.50;99.90;;;;;;8119723;29;20024;-81
2022/12/29 03:46:56;;;;;;;1.85;0.75;;;8.50;99.90;;;;;;8086073;29;20029;-81
2022/12/29 03:50:56;;;;;;;1.42;0.73;;;8.60;99.90;;;;;;8098328;29;20088;-81
2022/12/29 03:54:57;;;;;;;0.73;0.38;;;8.60;99.90;;;;;;8086036;29;20033;-82
2022/12/29 03:58:57;;;;;;;0.77;0.52;;;8.60;99.90;;;;;;8092495;29;20029;-81
2022/12/29 04:02:58;;;;;;;0.63;0.57;;;8.60;99.90;;;;;;8114795;29;20032;-83
2022/12/29 04:06:58;;;;;;;0.93;0.65;;;8.60;99.90;;;;;;8097876;29;20060;-82
2022/12/29 04:10:59;;;;;;;0.90;0.60;;;8.60;99.90;;;;;;8101424;29;20409;-83
2022/12/29 04:14:59;;;;;;;1.27;0.70;;;8.50;99.90;;;;;;8097672;29;20036;-82
2022/12/29 04:19:00;;;;;;;1.23;0.63;;;8.60;99.90;;;;;;8097484;29;20028;-83
2022/12/29 04:23:05;;;;;;;2.25;0.63;;;8.40;99.90;;;;;;8121044;29;20509;-81
2022/12/29 04:27:05;;;;;;;2.05;0.68;;;8.40;99.90;;;;;;8114691;29;20036;-82
2022/12/29 04:31:06;;;;;;;1.77;0.80;;;8.30;99.90;;;;;;8099019;29;20028;-82
2022/12/29 04:35:07;;;;;;;2.22;0.95;;;8.20;99.90;;;;;;8094218;29;20120;-81
2022/12/29 04:39:07;;;;;;;2.60;0.80;;;8.30;99.90;;;;;;8092786;29;20025;-82
2022/12/29 04:43:09;;;;;;;0.82;0.80;;;8.30;99.90;;;;;;8112829;29;20032;-82
2022/12/29 04:47:10;;;;;;;2.50;0.93;;;8.10;99.90;;;;;;8105812;29;20382;-82
2022/12/29 04:51:10;;;;;;;1.00;0.60;;;8.20;99.90;;;;;;8082697;29;20036;-82
2022/12/29 04:55:11;;;;;;;1.48;0.60;;;8.20;99.90;;;;;;8093628;29;20487;-81
2022/12/29 04:59:11;;;;;;;1.20;0.60;;;8.10;99.90;;;;;;8119287;29;20029;-82
2022/12/29 05:03:12;;;;;;;1.30;0.57;;;8.00;99.90;;;;;;8085773;29;20021;-82
2022/12/29 05:07:13;;;;;;;1.00;0.60;;;7.90;99.90;;;;;;8100531;29;20043;-81
2022/12/29 05:11:13;;;;;;;2.33;0.95;;;7.80;99.90;;;;;;8095914;29;20097;-82
2022/12/29 05:15:14;;;;;;;3.70;0.90;;;7.70;99.90;;;;;;8087700;29;20075;-82
2022/12/29 05:19:15;;;;;;;1.23;0.75;;;7.70;99.90;;;;;;8083143;29;20025;-82
2022/12/29 05:23:15;;;;;;;4.10;0.90;;;7.70;99.90;;;;;;8101510;29;20067;-82
2022/12/29 05:27:16;;;;;;;1.15;0.90;;;7.80;99.90;;;;;;8100577;29;20028;-82
2022/12/29 05:31:17;;;;;;;1.65;0.80;;;7.70;99.90;;;;;;8104960;29;20119;-82
2022/12/29 05:35:17;;;;;;;1.08;0.90;;;7.70;99.90;;;;;;8079657;29;20049;-82
2022/12/29 05:39:18;;;;;;;1.10;0.90;;;7.60;99.90;;;;;;8089289;29;20032;-81
2022/12/29 05:43:18;;;;;;;1.23;0.90;;;7.60;99.90;;;;;;8126864;29;20036;-82
2022/12/29 05:47:19;;;;;;;3.05;0.95;;;7.50;99.90;;;;;;8097093;29;20487;-82
2022/12/29 05:51:19;;;;;;;1.88;0.90;;;7.60;99.90;;;;;;8075003;29;20029;-83
2022/12/29 05:55:20;;;;;;;1.80;0.80;;;7.60;99.90;;;;;;8080056;29;20052;-82
2022/12/29 05:59:21;;;;;;;4.70;0.80;;;7.60;99.90;;;;;;8101064;29;20718;-82
2022/12/29 06:03:21;;;;;;;1.35;0.88;;;7.50;99.90;;;;;;8109778;29;20422;-82
2022/12/29 06:07:22;;;;;;;1.20;0.90;;;7.40;99.90;;;;;;8094803;29;20033;-82
2022/12/29 06:11:22;;;;;;;1.30;0.93;;;7.50;99.90;;;;;;8087716;29;20033;-82
2022/12/29 06:15:23;;;;;;;0.93;0.70;;;7.50;99.90;;;;;;8103255;29;20040;-82
2022/12/29 06:19:23;;;;;;;1.58;1.02;;;7.50;99.90;;;;;;8107619;29;20102;-82
2022/12/29 06:23:24;;;;;;;2.20;1.10;;;7.40;99.90;;;;;;8091289;29;20031;-82
2022/12/29 06:27:25;;;;;;;1.70;0.93;;;7.30;99.90;;;;;;8082018;29;20378;-82
2022/12/29 06:31:26;;;;;;;2.90;1.17;;;7.40;99.90;;;;;;8075730;29;20044;-82
2022/12/29 06:35:26;;;;;;;1.88;0.95;;;7.50;99.90;;;;;;8094674;29;20067;-82
2022/12/29 06:39:27;;;;;;;3.83;1.10;;;7.60;99.90;;;;;;8081369;29;20039;-81
2022/12/29 06:43:28;;;;;;;4.03;0.90;;;7.40;99.90;;;;;;8080205;29;20036;-82
2022/12/29 06:47:28;;;;;;;2.53;1.17;;;7.60;99.90;;;;;;8077651;29;20036;-81
2022/12/29 06:51:29;;;;;;;1.05;0.68;;;7.60;99.90;;;;;;8081301;29;20048;-82
2022/12/29 06:55:29;;;;;;;0.93;0.60;;;7.70;99.90;;;;;;8095790;29;20128;-82
2022/12/29 06:59:30;;;;;;;1.75;0.80;;;7.80;99.90;;;;;;8088430;29;20501;-82
2022/12/29 07:03:30;;;;;;;1.90;0.70;;;7.70;99.90;;;;;;8106379;29;20059;-81
2022/12/29 07:07:31;;;;;;;1.65;0.90;;;7.80;99.90;;;;;;8098259;29;20556;-83
2022/12/29 07:11:32;;;;;;;1.10;0.73;;;7.70;99.90;;;;;;8103652;29;20036;-82
2022/12/29 07:15:32;;;;;;;1.05;0.80;;;7.80;99.90;;;;;;8088555;29;20036;-82
2022/12/29 07:19:33;;;;;;;2.35;0.95;;;7.80;99.90;;;;;;8075837;29;20127;-82
2022/12/29 07:23:34;;;;;;;2.33;0.98;;;7.90;99.90;;;;;;8076253;29;20091;-83
2022/12/29 07:27:34;;;;;;;1.42;0.88;;;7.90;99.90;;;;;;8087795;29;20029;-82
2022/12/29 07:31:35;;;;;;;2.08;0.98;;;8.10;99.90;;;;;;8082718;29;20033;-82
2022/12/29 07:35:35;;;;;;;1.92;1.15;;;8.10;99.90;;;;;;8081660;29;20089;-82
2022/12/29 07:39:36;;;;;;;1.63;1.00;;;8.10;99.90;;;;;;8077433;29;20501;-81
2022/12/29 07:43:36;;;;;;;4.60;0.88;;;8.10;99.90;;;;;;8076723;29;20031;-82
2022/12/29 07:47:37;;;;;;;2.72;1.10;;;8.20;99.90;;;;;;8069408;29;20028;-82
2022/12/29 07:51:37;;;;;;;2.25;1.20;;;8.20;99.90;;;;;;8080863;29;20053;-82
2022/12/29 07:55:38;;;;;;;7.30;1.10;;;8.30;99.90;;;;;;8073302;29;20033;-82
2022/12/29 07:59:39;;;;;;;1.33;1.08;;;8.30;99.90;;;;;;8079947;29;20028;-82
2022/12/29 08:03:41;;;;;;;4.15;1.33;;;8.40;99.90;;;;;;8083345;29;20401;-81
2022/12/29 08:07:45;;;;;;;2.67;1.15;;;8.50;99.90;;;;;;8084789;29;20037;-82
2022/12/29 08:11:46;;;;;;;2.65;0.88;;;8.60;99.90;;;;;;8070087;29;20401;-82
2022/12/29 08:15:46;;;;;;;2.55;1.15;;;8.80;99.90;;;;;;8082396;29;20067;-81
2022/12/29 08:19:47;;;;;;;4.93;1.40;;;9.00;99.90;;;;;;8091767;29;20116;-82
2022/12/29 08:23:49;;;;;;;2.10;1.20;;;9.20;99.90;;;;;;8083234;29;20059;-81
2022/12/29 08:27:49;;;;;;;1.58;1.05;;;9.20;99.90;;;;;;8075468;29;20029;-83
2022/12/29 08:31:50;;;;;;;2.00;1.13;;;9.30;99.90;;;;;;8084312;29;20524;-82
2022/12/29 08:35:50;;;;;;;2.05;0.98;;;9.20;99.90;;;;;;8074728;29;20493;-82
2022/12/29 08:39:51;;;;;;;2.25;0.93;;;9.20;99.90;;;;;;8085495;29;20082;-82
2022/12/29 08:43:51;;;;;;;1.13;0.80;;;9.20;99.90;;;;;;8079168;29;20021;-82
2022/12/29 08:47:52;;;;;;;1.63;0.98;;;9.20;99.90;;;;;;8079736;29;21312;-81
2022/12/29 08:51:53;;;;;;;1.30;0.80;;;9.30;99.90;;;;;;8101770;29;20029;-81
2022/12/29 08:55:59;;;;;;;1.73;1.00;;;9.40;99.90;;;;;;8116474;29;20032;-81
2022/12/29 08:59:59;;;;;;;1.17;0.63;;;9.40;99.90;;;;;;8103514;29;20028;-81
2022/12/29 09:04:00;;;;;;;2.65;0.80;;;9.40;99.90;;;;;;8106557;29;20047;-81
2022/12/29 09:08:00;;;;;;;1.85;0.77;;;9.30;99.90;;;;;;8111895;29;20028;-81
2022/12/29 09:12:01;;;;;;;5.30;0.80;;;9.30;99.90;;;;;;8096478;29;20480;-81
2022/12/29 09:16:02;;;;;;;2.05;1.00;;;9.20;99.90;;;;;;8095261;29;20134;-82
2022/12/29 09:20:04;;;;;;;1.08;0.75;;;9.20;99.90;;;;;;8097179;29;20383;-81
2022/12/29 09:24:04;;;;;;;1.90;1.00;;;9.10;99.90;;;;;;8089000;29;20051;-82
2022/12/29 09:28:07;;;;;;;3.42;0.68;;;9.20;99.90;;;;;;8085480;29;20052;-80
2022/12/29 09:32:08;;;;;;;1.40;0.85;;;9.10;99.90;;;;;;8105452;29;20119;-81
2022/12/29 09:36:08;;;;;;;0.88;0.65;;;9.10;99.90;;;;;;8088817;29;20132;-81
2022/12/29 09:40:26;;;;;;;1.58;0.93;;;9.10;99.90;;;;;;8095617;29;20028;-81
2022/12/29 09:44:57;;;;;;;1.20;0.80;;;9.30;99.90;;;;;;8088549;29;20043;-81
2022/12/29 09:49:23;;;;;;;3.08;0.85;;;9.40;99.90;;;;;;8073285;29;20029;-81
2022/12/29 09:53:36;;;;;;;2.17;0.70;;;9.60;99.90;;;;;;8091895;29;20040;-81
2022/12/29 09:58:02;;;;;;;1.08;0.80;;;9.80;99.90;;;;;;8083572;29;20036;-82
2022/12/29 10:02:34;;;;;;;4.15;0.90;;;10.00;99.90;;;;;;8078500;29;20076;-81
2022/12/29 10:07:05;;;;;;;1.10;0.73;;;10.10;99.90;;;;;;8092797;29;20039;-81
2022/12/29 10:11:32;;;;;;;1.00;0.75;;;10.30;99.90;;;;;;8089881;29;20028;-80
2022/12/29 10:15:51;;;;;;;1.45;0.77;;;10.50;99.90;;;;;;8077529;29;20029;-82
2022/12/29 10:20:26;;;;;;;2.65;1.17;;;10.90;99.90;;;;;;8092438;29;20033;-80
2022/12/29 10:24:29;;;;;;;2.30;1.30;;;10.90;99.90;;;;;;8069861;29;20037;-82
2022/12/29 10:28:50;;;;;;;1.30;0.90;;;10.90;99.90;;;;;;8083612;29;20485;-81
2022/12/29 10:33:00;;;;;;;1.20;0.77;;;10.90;99.90;;;;;;8083031;29;20123;-81
2022/12/29 10:37:24;;;;;;;1.35;1.02;;;11.20;99.90;;;;;;8084754;29;20029;-81
2022/12/29 10:41:55;;;;;;;1.00;0.70;;;11.40;99.90;;;;;;8100290;29;20446;-84
2022/12/29 10:46:07;;;;;;;4.22;1.00;;;11.60;99.90;;;;;;8073788;29;20158;-84
2022/12/29 10:50:12;;;;;;;1.48;0.88;;;11.60;99.90;;;;;;8081083;29;20033;-84
2022/12/29 10:54:26;;;;;;;2.50;0.88;;;11.40;99.90;;;;;;8076758;29;20031;-84
2022/12/29 10:58:28;;;;;;;1.42;0.85;;;11.60;99.90;;;;;;8092392;29;20044;-84
2022/12/29 11:02:29;;;;;;;1.67;0.82;;;11.60;99.90;;;;;;8108112;29;20024;-84
2022/12/29 11:06:29;;;;;;;2.88;0.80;;;11.80;99.90;;;;;;8089303;29;20044;-85
2022/12/29 11:10:38;;;;;;;4.05;1.05;;;12.40;99.90;;;;;;8068814;29;20231;-84
2022/12/29 11:14:40;;;;;;;1.30;0.70;;;12.80;99.90;;;;;;8079503;29;20032;-84
2022/12/29 11:18:45;;;;;;;1.17;0.80;;;13.00;99.90;;;;;;8090265;29;20180;-83
2022/12/29 11:22:46;;;;;;;1.48;0.85;;;13.00;99.90;;;;;;8098480;29;20027;-82
2022/12/29 11:26:49;;;;;;;0.90;0.70;;;12.70;99.90;;;;;;8080446;29;20375;-81
2022/12/29 11:30:59;;;;;;;1.60;0.88;;;12.50;99.90;;;;;;8102082;29;20397;-81
2022/12/29 11:35:01;;;;;;;2.30;0.95;;;12.30;99.90;;;;;;8099501;29;20036;-82
2022/12/29 11:39:03;;;;;;;2.70;0.80;;;12.30;99.90;;;;;;8091152;29;20056;-81
2022/12/29 11:43:04;;;;;;;2.53;0.82;;;12.30;99.90;;;;;;8104985;29;20036;-79
2022/12/29 11:47:07;;;;;;;4.00;0.70;;;12.30;99.90;;;;;;8083123;29;20064;-82
2022/12/29 11:51:10;;;;;;;1.77;0.70;;;12.20;99.90;;;;;;8078415;29;20115;-82
2022/12/29 11:55:21;;;;;;;1.73;1.00;;;12.10;99.90;;;;;;8081089;29;20183;-82
2022/12/29 11:59:31;;;;;;;3.88;1.63;;;12.00;99.90;;;;;;8072535;29;20040;-82
2022/12/29 12:03:35;;;;;;;0.93;0.60;;;11.90;99.90;;;;;;8091491;29;20081;-82
2022/12/29 12:07:49;;;;;;;3.40;0.93;;;12.00;99.90;;;;;;8080586;29;20381;-83
2022/12/29 12:11:53;;;;;;;1.95;0.90;;;11.90;99.90;;;;;;8089523;29;20040;-82
2022/12/29 12:16:14;;;;;;;2.92;0.70;;;11.80;99.90;;;;;;8078246;29;20036;-81
2022/12/29 12:20:22;;;;;;;1.25;0.82;;;11.90;99.90;;;;;;8081154;29;20033;-81
2022/12/29 12:24:44;;;;;;;1.55;0.75;;;11.90;99.90;;;;;;8093301;29;20040;-81
2022/12/29 12:29:00;;;;;;;3.72;1.35;;;11.80;99.90;;;;;;8096753;29;20038;-81
2022/12/29 12:33:04;;;;;;;1.15;0.73;;;12.00;99.90;;;;;;8093832;29;20029;-82
2022/12/29 12:37:20;;;;;;;0.73;0.55;;;12.10;99.90;;;;;;8091823;29;20172;-82
2022/12/29 12:41:36;;;;;;;3.67;1.30;;;12.00;99.90;;;;;;8110856;29;20080;-81
2022/12/29 12:46:08;;;;;;;2.03;0.80;;;12.00;99.90;;;;;;8100118;29;20133;-82
2022/12/29 12:50:18;;;;;;;1.15;0.90;;;12.00;99.90;;;;;;8090835;29;20033;-83
2022/12/29 12:54:52;;;;;;;2.05;1.10;;;11.90;99.90;;;;;;8068891;29;20498;-81
2022/12/29 12:59:03;;;;;;;4.72;1.00;;;12.00;99.90;;;;;;8069799;29;20043;-80
2022/12/29 13:03:21;;;;;;;1.48;0.70;;;11.80;99.90;;;;;;8087483;29;20485;-81
2022/12/29 13:08:03;;;;;;;1.88;0.95;;;11.70;99.90;;;;;;8087798;29;20032;-81
2022/12/29 13:12:22;;;;;;;1.05;0.73;;;11.70;99.90;;;;;;8094569;29;20035;-81
2022/12/29 13:16:23;;;;;;;1.40;0.85;;;11.70;99.90;;;;;;8089069;29;20040;-82
2022/12/29 13:20:31;;;;;;;1.08;0.68;;;11.60;99.90;;;;;;8079318;29;20031;-81
2022/12/29 13:24:50;;;;;;;2.05;0.60;;;11.50;99.90;;;;;;8077153;29;20081;-82
2022/12/29 13:29:10;;;;;;;2.58;0.88;;;11.40;99.90;;;;;;8099428;29;20040;-82
2022/12/29 13:33:17;;;;;;;;;;;11.40;99.90;;;;;;8099432;29;20180;-81
2022/12/29 13:37:22;;;;;;;2.05;0.88;;;11.50;99.90;;;;;;8099172;29;19923;-81
2022/12/29 13:41:46;;;;;;;1.65;0.95;;;11.30;99.90;;;;;;8078182;29;20035;-82
2022/12/29 13:45:55;;;;;;;1.23;0.70;;;11.30;99.90;;;;;;8073481;29;20390;-81
2022/12/29 13:49:59;;;;;;;2.80;0.98;;;11.20;99.90;;;;;;8076813;29;20107;-80
2022/12/29 13:54:13;;;;;;;3.47;0.85;;;11.10;99.90;;;;;;8084582;29;20080;-83
2022/12/29 13:58:37;;;;;;;3.20;0.77;;;11.00;99.90;;;;;;8089798;29;20040;-83
2022/12/29 14:03:07;;;;;;;1.38;0.73;;;10.90;99.90;;;;;;8106597;29;20541;-83
2022/12/29 14:07:17;;;;;;;15.50;8.00;;;10.80;99.90;;;;;;8086467;29;20031;-83
2022/12/29 14:11:21;;;;;;;3.80;2.30;;;10.80;99.90;;;;;;8080833;29;20181;-83
2022/12/29 14:15:24;;;;;;;1.65;0.90;;;10.80;99.90;;;;;;8084128;29;20124;-84
2022/12/29 14:19:30;;;;;;;3.17;1.00;;;10.70;99.90;;;;;;8084909;29;20056;-83
2022/12/29 14:23:42;;;;;;;1.95;0.82;;;10.60;99.90;;;;;;8092447;29;20413;-84
2022/12/29 14:27:50;;;;;;;3.03;1.10;;;10.70;99.90;;;;;;8103871;29;20067;-84
2022/12/29 14:35:55;;;;;;;1.08;0.70;;;10.60;99.90;;;;;;8138894;29;20139;-80
2022/12/29 14:40:06;;;;;;;3.20;0.70;;;10.60;99.90;;;;;;8142742;29;20345;-80
2022/12/29 14:44:07;;;;;;;1.73;0.57;;;10.50;99.90;;;;;;8156861;28;20024;-78
2022/12/29 14:48:32;;;;;;;3.33;0.70;;;10.60;99.90;;;;;;8135675;29;20036;-81
2022/12/29 14:52:35;;;;;;;4.47;0.85;;;10.60;99.90;;;;;;8149015;29;20347;-80
2022/12/29 14:56:39;;;;;;;1.67;0.70;;;10.40;99.90;;;;;;8138131;29;20029;-80
2022/12/29 15:00:41;;;;;;;1.05;0.77;;;10.40;99.90;;;;;;8140094;29;20039;-81
2022/12/29 15:04:42;;;;;;;2.80;0.73;;;10.40;99.90;;;;;;8134099;29;20095;-80
2022/12/29 15:09:02;;;;;;;0.98;0.60;;;10.30;99.90;;;;;;8152325;29;20020;-78
2022/12/29 15:13:13;;;;;;;1.20;0.80;;;10.20;99.90;;;;;;8138716;29;20111;-80
2022/12/29 15:17:34;;;;;;;1.13;0.70;;;10.10;99.90;;;;;;8137380;29;20039;-81
2022/12/29 15:21:36;;;;;;;2.40;0.88;;;9.90;99.90;;;;;;8138367;29;20028;-81
2022/12/29 15:25:52;;;;;;;1.30;0.68;;;9.80;99.90;;;;;;8144412;29;20036;-80
2022/12/29 15:30:02;;;;;;;1.00;0.65;;;9.70;99.90;;;;;;8138392;29;20563;-80
2022/12/29 15:34:11;;;;;;;1.13;0.70;;;9.60;99.90;;;;;;8136792;29;20524;-80
2022/12/29 15:38:22;;;;;;;0.90;0.80;;;9.70;99.90;;;;;;8134852;29;20028;-81
2022/12/29 15:42:48;;;;;;;2.50;0.90;;;9.60;99.90;;;;;;8134544;29;20103;-79
2022/12/29 15:46:49;;;;;;;2.65;1.10;;;9.60;99.90;;;;;;8141092;29;20039;-80
2022/12/29 15:50:51;;;;;;;33.33;13.45;;;9.40;99.90;;;;;;8136867;29;20060;-78
2022/12/29 15:54:53;;;;;;;11.30;6.00;;;9.40;99.90;;;;;;8137746;29;20501;-81
2022/12/29 15:58:53;;;;;;;3.00;1.65;;;9.10;99.90;;;;;;8136053;29;20046;-80
2022/12/29 16:02:55;;;;;;;5.13;2.25;;;9.00;99.90;;;;;;8138595;29;20035;-80
2022/12/29 16:07:00;;;;;;;17.17;8.27;;;9.00;99.90;;;;;;8136110;29;20042;-79
2022/12/29 16:11:02;;;;;;;9.90;4.72;;;8.90;99.90;;;;;;8134366;29;20088;-80
2022/12/29 16:15:09;;;;;;;11.98;5.72;;;8.90;99.90;;;;;;8140015;29;20124;-81
2022/12/29 16:19:33;;;;;;;10.70;5.80;;;8.80;99.90;;;;;;8138271;29;20092;-80
2022/12/29 16:23:36;;;;;;;7.43;4.43;;;8.80;99.90;;;;;;8132796;29;20059;-80
2022/12/29 16:27:40;;;;;;;5.47;2.10;;;8.70;99.90;;;;;;8134340;29;20035;-79
2022/12/29 16:32:04;;;;;;;9.02;4.55;;;8.80;99.90;;;;;;8136358;29;20648;-79
2022/12/29 16:36:32;;;;;;;3.83;2.50;;;8.70;99.90;;;;;;8134073;29;20088;-79
2022/12/29 16:40:33;;;;;;;3.63;1.15;;;8.80;99.90;;;;;;8126547;29;20054;-78
2022/12/29 16:44:33;;;;;;;3.42;2.00;;;8.80;99.90;;;;;;8135603;29;20036;-80
2022/12/29 16:48:45;;;;;;;3.17;1.38;;;8.80;99.90;;;;;;8129481;29;20523;-80
2022/12/29 16:52:49;;;;;;;1.75;1.20;;;8.80;99.90;;;;;;8133332;29;20408;-80
2022/12/29 16:56:51;;;;;;;2.92;1.75;;;8.70;99.90;;;;;;8122760;29;20028;-80
2022/12/29 17:00:55;;;;;;;2.60;0.98;;;8.80;99.90;;;;;;8129029;29;20033;-80
2022/12/29 17:04:56;;;;;;;1.35;1.05;;;8.70;99.90;;;;;;8132550;29;20036;-80
2022/12/29 17:08:57;;;;;;;2.55;1.05;;;8.70;99.90;;;;;;8138159;29;20048;-80
2022/12/29 17:12:57;;;;;;;3.92;1.75;;;8.70;99.90;;;;;;8119076;29;20016;-79
2022/12/29 17:16:59;;;;;;;7.60;3.20;;;8.60;99.90;;;;;;8134224;29;20050;-78
2022/12/29 17:21:00;;;;;;;1.27;0.90;;;8.60;99.90;;;;;;8137010;29;20024;-80
2022/12/29 17:25:02;;;;;;;2.70;1.30;;;8.70;99.90;;;;;;8130977;29;20028;-78
2022/12/29 17:29:03;;;;;;;1.55;1.10;;;8.70;99.90;;;;;;8134231;29;20035;-80
2022/12/29 17:33:09;;;;;;;1.63;1.00;;;8.60;99.90;;;;;;8135571;29;20131;-79
2022/12/29 17:37:31;;;;;;;1.40;0.90;;;8.60;99.90;;;;;;8143932;29;20042;-80
2022/12/29 17:41:35;;;;;;;2.83;1.05;;;8.60;99.90;;;;;;8142847;29;20051;-79
2022/12/29 17:45:37;;;;;;;2.35;1.25;;;8.70;99.90;;;;;;8127853;29;20032;-79
2022/12/29 17:49:38;;;;;;;4.13;2.22;;;8.60;99.90;;;;;;8141908;29;20029;-80
2022/12/29 17:53:39;;;;;;;5.28;2.05;;;8.60;99.90;;;;;;8140342;29;20032;-80
2022/12/29 17:57:40;;;;;;;16.75;6.30;;;8.60;99.90;;;;;;8131114;29;20039;-80
2022/12/29 18:01:42;;;;;;;13.23;5.28;;;8.70;99.90;;;;;;8134584;29;20120;-80
2022/12/29 18:05:43;;;;;;;2.13;1.15;;;9.00;99.90;;;;;;8136185;29;20061;-80
2022/12/29 18:09:44;;;;;;;10.90;3.38;;;9.10;99.90;;;;;;8136349;29;20051;-80
2022/12/29 18:13:44;;;;;;;1.38;0.90;;;9.10;99.90;;;;;;8136118;29;20028;-81
2022/12/29 18:17:45;;;;;;;2.78;0.80;;;9.10;99.90;;;;;;8137874;29;20032;-80
2022/12/29 18:21:46;;;;;;;2.33;0.85;;;9.20;99.90;;;;;;8142550;29;20091;-79
2022/12/29 18:25:54;;;;;;;1.52;0.82;;;9.20;99.90;;;;;;8141604;29;20087;-79
2022/12/29 18:29:54;;;;;;;1.20;0.52;;;9.30;99.90;;;;;;8143042;29;20160;-80
2022/12/29 18:33:57;;;;;;;1.77;0.90;;;9.30;99.90;;;;;;8141567;29;20028;-81
2022/12/29 18:37:57;;;;;;;2.28;1.00;;;9.30;99.90;;;;;;8154692;29;20112;-80
2022/12/29 18:41:58;;;;;;;0.90;0.77;;;9.40;99.90;;;;;;8140167;29;20036;-81
2022/12/29 18:45:58;;;;;;;1.70;0.73;;;9.30;99.90;;;;;;8145140;29;20047;-80
2022/12/29 18:49:59;;;;;;;3.65;1.10;;;9.30;99.90;;;;;;8128938;29;20092;-80
2022/12/29 18:54:00;;;;;;;1.58;0.70;;;9.40;99.90;;;;;;8135578;29;20071;-80
2022/12/29 18:58:00;;;;;;;2.20;0.90;;;9.40;99.90;;;;;;8136244;29;20036;-81
2022/12/29 19:02:01;;;;;;;3.47;0.88;;;9.30;99.90;;;;;;8142761;29;20088;-80
2022/12/29 19:06:01;;;;;;;1.40;0.90;;;9.20;99.90;;;;;;8140785;29;20034;-80
2022/12/29 19:10:02;;;;;;;2.28;0.95;;;9.20;99.90;;;;;;8138858;29;20032;-80
2022/12/29 19:14:03;;;;;;;1.38;0.68;;;9.20;99.90;;;;;;8144962;29;20032;-81
2022/12/29 19:18:05;;;;;;;0.82;0.60;;;9.20;99.90;;;;;;8137963;29;20043;-79
2022/12/29 19:22:06;;;;;;;1.60;0.73;;;9.20;99.90;;;;;;8139610;29;20035;-81
2022/12/29 19:26:23;;;;;;;0.73;0.45;;;9.10;99.90;;;;;;8139381;29;20044;-80
2022/12/29 19:30:24;;;;;;;3.13;0.68;;;9.10;99.90;;;;;;8138524;29;20500;-80
2022/12/29 19:34:25;;;;;;;2.33;0.73;;;9.20;99.90;;;;;;8144899;29;20034;-81
2022/12/29 19:38:25;;;;;;;0.95;0.57;;;9.10;99.90;;;;;;8141436;29;20040;-81
2022/12/29 19:42:26;;;;;;;1.58;0.80;;;9.10;99.90;;;;;;8140207;29;20039;-81
2022/12/29 19:46:27;;;;;;;1.33;0.90;;;9.10;99.90;;;;;;8139264;29;20036;-80
2022/12/29 19:50:28;;;;;;;2.25;0.85;;;9.10;99.90;;;;;;8139916;29;20040;-81
2022/12/29 19:54:28;;;;;;;0.85;0.60;;;9.10;99.90;;;;;;8141445;29;20032;-81
2022/12/29 19:58:29;;;;;;;1.05;0.50;;;9.20;99.90;;;;;;8150781;29;20043;-81
2022/12/29 20:02:32;;;;;;;0.68;0.57;;;9.20;99.90;;;;;;8164797;29;20024;-81
2022/12/29 20:06:33;;;;;;;2.30;0.80;;;9.30;99.90;;;;;;8142374;29;20477;-80
2022/12/29 20:10:33;;;;;;;1.98;1.02;;;9.30;99.90;;;;;;8133023;29;20034;-80
2022/12/29 20:14:34;;;;;;;3.15;1.10;;;9.30;99.90;;;;;;8133240;29;20040;-80
2022/12/29 20:18:35;;;;;;;1.00;0.38;;;9.20;99.90;;;;;;8135640;29;20039;-80
2022/12/29 20:22:35;;;;;;;0.60;0.57;;;9.40;99.90;;;;;;8134465;29;20083;-80
2022/12/29 20:26:36;;;;;;;1.05;0.50;;;9.30;99.90;;;;;;8134627;29;20029;-80
2022/12/29 20:30:36;;;;;;;0.80;0.57;;;9.30;99.90;;;;;;8132499;29;20027;-81
2022/12/29 20:38:41;;;;;;;1.73;0.40;;;8.90;99.90;;;;;;8127903;29;20091;-81
2022/12/29 20:42:42;;;;;;;0.20;0.20;;;8.70;99.90;;;;;;8144060;29;20032;-81
2022/12/29 20:46:42;;;;;;;0.43;0.32;;;8.60;99.90;;;;;;8129108;29;20028;-82
2022/12/29 20:50:43;;;;;;;0.30;0.20;;;8.40;99.90;;;;;;8131174;29;20022;-82
2022/12/29 20:54:44;;;;;;;0.30;0.20;;;8.30;99.90;;;;;;8129205;29;20496;-81
2022/12/29 20:58:44;;;;;;;0.28;0.20;;;8.20;99.90;;;;;;8134793;29;20067;-81
2022/12/29 21:02:47;;;;;;;0.10;0.10;;;8.30;99.90;;;;;;8134690;29;20039;-82
2022/12/29 21:06:47;;;;;;;1.05;0.22;;;8.20;99.90;;;;;;8121687;29;20446;-80
2022/12/29 21:10:49;;;;;;;0.28;0.13;;;8.20;99.90;;;;;;8140526;29;20020;-81
2022/12/29 21:14:49;;;;;;;0.88;0.22;;;8.20;99.90;;;;;;8125739;29;20473;-81
2022/12/29 21:18:50;;;;;;;0.55;0.30;;;8.10;99.90;;;;;;8138897;29;20086;-81
2022/12/29 21:22:50;;;;;;;0.38;0.20;;;8.10;99.90;;;;;;8137579;29;20028;-80
2022/12/29 21:26:51;;;;;;;2.38;0.20;;;8.00;99.90;;;;;;8141144;29;20036;-81
2022/12/29 21:30:52;;;;;;;0.52;0.17;;;8.00;99.90;;;;;;8140587;29;20028;-80
2022/12/29 21:34:52;;;;;;;0.13;0.10;;;7.90;99.90;;;;;;8141247;29;20189;-81
2022/12/29 21:38:54;;;;;;;0.73;0.22;;;8.00;99.90;;;;;;8141235;29;20119;-81
2022/12/29 21:42:54;;;;;;;0.10;0.10;;;7.90;99.90;;;;;;8138605;29;20043;-82
2022/12/29 21:46:55;;;;;;;0.10;0.03;;;7.80;99.90;;;;;;8125259;29;20036;-81
2022/12/29 21:55:22;;;;;;;0.47;0.10;;;7.80;99.90;;;;;;8137750;29;20413;-81
2022/12/29 22:16:40;;;;;;;0.73;0.10;;;7.70;99.90;;;;;;8137768;29;20055;-81
2022/12/29 22:20:40;;;;;;;0.10;0.10;;;7.70;99.90;;;;;;8125969;29;20382;-81
2022/12/29 22:24:42;;;;;;;1.25;0.30;;;7.80;99.90;;;;;;8130134;29;20219;-81
2022/12/29 22:28:44;;;;;;;0.10;0.05;;;7.80;99.90;;;;;;8134263;29;20023;-82
2022/12/29 22:32:45;;;;;;;0.52;0.10;;;7.70;99.90;;;;;;8135656;29;20055;-82
2022/12/29 22:36:46;;;;;;;0.08;0.08;;;7.70;99.90;;;;;;8124004;29;20040;-82